Terminal Aerodrome Forecast
Issued by NWS Twin Cities, MN

Home | Current Version | Previous Version | Graphics & Text | Print | Product List | Glossary On
Versions: 1 2 3 4 5 6 7 8 9 10 11 12 13 14 15 16 17 18 19 20 21 22 23 24 25 26 27
947
FTUS43 KMPX 240248 AAA
TAFMSP
TAF AMD
KMSP 240248Z 2403/2506 14005KT P6SM SCT070 BKN250
     FM240700 13005KT P6SM SCT250
     FM241600 17011G17KT P6SM SCT050 BKN250=

USA.gov is the U.S. government's official web portal to all federal, state and local government web resources and services.